»·PEaware :: N6EN KAPA-KLBF

N6EN :: KAPA-KLBF

FLIGHT INFORMATION

Flight Status: Arrived
Operator: Privately registered:
United States
More flights under this callsign
Pilot: Lamont A. (24221)
Aircraft: SOCATA TBM-900
(TBM9)
More flights by this aircraft type
Origin: KAPA Centennial
United States
Destination: KLBF North Platte Regl-Bird
United States
More flights between these airports :: More routes between these airports
Route: +PLAIN1 HCT
File this flight plan on PilotEdge
Remarks: im new
Altitude:
(Current/Filed)
29,000ft
Speed:
(Current/Filed)
250kts
Departed: 17-May-20 08:27 AM
Arrived: 17-May-20 09:37 AM
Distance/Time
Traveled:
212nm/1:09
Distance/Time
To Go:
Arrived

Flight Plot

Page will automatically refresh every two minutes.

Flight plan parsing failed; only flown route is shown


Map Options




Map Legend


Flown Route
Filed Route
Departure Airport
Arrival Airport
Navaid (VOR, NDB)
Fix

Horizontal Profiles

Position Reports

Time Latitude Longitude Heading Altitude Ground
Speed
17-May-20 07:56 39.570278 -104.848123 180 5887ft 0kts
17-May-20 07:57 39.570278 -104.848123 180 5887ft 0kts
17-May-20 07:58 39.570278 -104.848123 180 5887ft 0kts
17-May-20 07:59 39.570278 -104.848123 180 5887ft 0kts
17-May-20 08:00 39.570278 -104.848123 180 5887ft 0kts
17-May-20 08:01 39.570278 -104.848123 180 5887ft 0kts
17-May-20 08:02 39.570278 -104.848123 180 5887ft 0kts
17-May-20 08:03 39.570278 -104.848123 180 5887ft 0kts
17-May-20 08:04 39.570278 -104.848123 180 5887ft 0kts
17-May-20 08:05 39.570278 -104.848123 180 5887ft 0kts
17-May-20 08:06 39.570278 -104.848123 180 5887ft 0kts
17-May-20 08:07 39.570278 -104.848123 180 5887ft 0kts
17-May-20 08:08 39.570278 -104.848123 180 5887ft 0kts
17-May-20 08:09 39.570278 -104.848123 180 5887ft 0kts
17-May-20 08:10 39.570278 -104.848123 180 5887ft 0kts
17-May-20 08:11 39.570278 -104.848123 180 5887ft 0kts
17-May-20 08:12 39.570278 -104.848123 180 5887ft 0kts
17-May-20 08:13 39.570249 -104.848125 182 5887ft 0kts
17-May-20 08:14 39.570169 -104.848376 269 5887ft 0kts
17-May-20 08:15 39.570169 -104.848376 269 5887ft 0kts
17-May-20 08:16 39.570201 -104.848591 301 5887ft 6kts
17-May-20 08:17 39.572493 -104.849532 357 5887ft 11kts
17-May-20 08:18 39.575625 -104.849685 357 5887ft 11kts
17-May-20 08:19 39.578708 -104.849868 358 5887ft 11kts
17-May-20 08:20 39.581789 -104.849975 358 5887ft 11kts
17-May-20 08:21 39.584083 -104.850268 284 5887ft 0kts
17-May-20 08:22 39.584083 -104.850268 284 5887ft 0kts
17-May-20 08:23 39.584083 -104.850268 284 5887ft 0kts
17-May-20 08:24 39.584083 -104.850268 284 5887ft 0kts
17-May-20 08:25 39.583888 -104.851436 184 5887ft 0kts
17-May-20 08:26 39.575106 -104.851064 177 5898ft 119kts
17-May-20 08:27 39.536921 -104.849638 179 7385ft 144kts
17-May-20 08:28 39.491905 -104.848880 179 8118ft 187kts
17-May-20 08:29 39.446858 -104.847491 179 9968ft 144kts
17-May-20 08:30 39.409890 -104.845083 179 11861ft 129kts
17-May-20 08:31 39.374468 -104.841803 179 13836ft 127kts
17-May-20 08:32 39.340153 -104.832753 129 15822ft 138kts
17-May-20 08:33 39.352363 -104.793388 45 17440ft 145kts
17-May-20 08:34 39.383143 -104.746175 43 19000ft 180kts
17-May-20 08:35 39.415960 -104.696632 42 20706ft 184kts
17-May-20 08:36 39.449780 -104.645600 42 22255ft 189kts
17-May-20 08:37 39.485625 -104.591431 41 24191ft 200kts
17-May-20 08:38 39.521418 -104.537234 40 26328ft 200kts
17-May-20 08:39 39.558010 -104.481731 39 28168ft 207kts
17-May-20 08:40 39.598325 -104.420657 41 29238ft 257kts
17-May-20 08:41 39.650019 -104.341819 43 29207ft 309kts
17-May-20 08:42 39.707678 -104.253687 43 29188ft 327kts
17-May-20 08:43 39.767096 -104.162636 43 29182ft 333kts
17-May-20 08:44 39.827200 -104.070274 43 29184ft 335kts
17-May-20 08:45 39.887635 -103.977132 43 29188ft 336kts
17-May-20 08:46 39.947902 -103.883976 43 29190ft 336kts
17-May-20 08:47 40.008166 -103.790628 43 29191ft 336kts
17-May-20 08:48 40.043238 -103.676024 68 29190ft 343kts
17-May-20 08:49 40.070204 -103.557329 68 29191ft 339kts
17-May-20 08:50 40.097079 -103.439100 68 29192ft 338kts
17-May-20 08:51 40.123797 -103.320988 69 29191ft 338kts
17-May-20 08:52 40.150373 -103.202821 69 29192ft 338kts
17-May-20 08:53 40.169433 -103.081803 73 29193ft 340kts
17-May-20 08:54 40.186683 -102.959602 72 29195ft 341kts
17-May-20 08:55 40.203776 -102.837832 72 29197ft 341kts
17-May-20 08:56 40.220816 -102.715207 72 29199ft 341kts
17-May-20 08:57 40.237672 -102.592934 72 29203ft 341kts
17-May-20 08:58 40.254428 -102.470319 72 29207ft 341kts
17-May-20 08:59 40.271016 -102.347958 73 29208ft 342kts
17-May-20 09:01 40.287592 -102.224658 73 29201ft 341kts
17-May-20 09:02 40.304241 -102.100064 73 28404ft 362kts
17-May-20 09:03 40.321728 -101.967474 74 26780ft 366kts
17-May-20 09:04 40.338745 -101.837559 74 25174ft 356kts
17-May-20 09:05 40.355049 -101.711692 74 24189ft 335kts
17-May-20 09:06 40.370022 -101.595296 74 24191ft 315kts
17-May-20 09:07 40.384318 -101.483376 73 24193ft 307kts
17-May-20 09:08 40.398238 -101.373425 73 24196ft 304kts
17-May-20 09:09 40.412051 -101.263476 74 24180ft 303kts
17-May-20 09:10 40.425681 -101.154124 74 24173ft 302kts
17-May-20 09:11 40.439101 -101.045527 74 24163ft 298kts
17-May-20 09:12 40.454018 -100.939789 51 24137ft 278kts
17-May-20 09:13 40.519596 -100.900716 7 22831ft 272kts
17-May-20 09:14 40.594039 -100.874047 7 21349ft 280kts
17-May-20 09:15 40.667996 -100.847730 7 19832ft 257kts
17-May-20 09:15 40.722577 -100.828330 7 18542ft 235kts
17-May-20 09:17 40.760837 -100.741927 65 16675ft 250kts
17-May-20 09:18 40.778704 -100.654949 65 15046ft 240kts
17-May-20 09:18 40.793402 -100.584858 65 13704ft 235kts
17-May-20 09:19 40.811156 -100.502537 65 12103ft 232kts
17-May-20 09:21 40.832316 -100.408317 64 10233ft 226kts
17-May-20 09:21 40.847510 -100.343028 65 8882ft 214kts
17-May-20 09:22 40.864073 -100.272266 65 7969ft 175kts
17-May-20 09:23 40.877947 -100.210238 65 7990ft 176kts
17-May-20 09:24 40.911974 -100.210603 288 7247ft 192kts
17-May-20 09:25 40.922301 -100.284478 285 5806ft 208kts
17-May-20 09:26 40.932425 -100.357358 285 4986ft 184kts
17-May-20 09:27 40.947603 -100.416123 317 4921ft 164kts
17-May-20 09:28 40.979225 -100.462454 315 4518ft 172kts
17-May-20 09:29 41.012070 -100.511729 314 3991ft 178kts
17-May-20 09:30 41.025503 -100.567362 258 4004ft 178kts
17-May-20 09:31 41.015325 -100.630768 263 3990ft 174kts
17-May-20 09:32 41.013855 -100.690353 325 3995ft 156kts
17-May-20 09:33 41.056513 -100.694819 359 3988ft 150kts
17-May-20 09:34 41.092682 -100.693904 358 3347ft 98kts
17-May-20 09:35 41.119414 -100.693300 2 2835ft 83kts
17-May-20 09:36 41.130916 -100.692952 343 2775ft 11kts
17-May-20 09:37 41.131091 -100.694036 271 2775ft 8kts
17-May-20 09:38 41.131671 -100.697665 272 2777ft 5kts
17-May-20 09:39 41.131673 -100.697706 273 2777ft 0kts
17-May-20 09:40 41.131673 -100.697706 273 2777ft 0kts
17-May-20 09:41 41.131673 -100.697706 273 2777ft 0kts
17-May-20 09:42 41.131673 -100.697706 273 2777ft 0kts
17-May-20 09:43 41.131673 -100.697706 273 2777ft 0kts
17-May-20 09:44 41.131673 -100.697706 273 2777ft 0kts
17-May-20 09:45 41.131673 -100.697706 273 2777ft 0kts
17-May-20 09:46 41.131673 -100.697706 273 2777ft 0kts
17-May-20 09:47 41.131673 -100.697706 273 2777ft 0kts
17-May-20 09:48 41.131673 -100.697706 273 2777ft 0kts

Navigation Log

Ident Type
Flight plan parsing failed, navigation log unavailable